VLG4537 LXGB-LEAL
Flight info
| Callsign | VLG4537 |
|---|---|
| Flight time | 0h 40m |
| Altitude | 32000 |
| Route | PIMOS DCT MGA DCT RESTU DCT IZBUZ DCT VILNA DCT D324W DCT D314Y DCT D297T DCT D290T DCT D280S DCT CL10Z DCT LOC11 DCT FF10 DCT 29LOC DCT ML10 |
| Aircraft | A320/M-SDE3FGHIRWY/LB1 |
Departure
| Time | 2026-05-07 10:01 |
|---|---|
| Airport | Gibraltar Airport (LXGB) |
Arrival
| Time | 2026-05-07 10:41 |
|---|---|
| Airport | Alicante-Elche Miguel Hernández Airport (LEAL) |
| Time | Latitude | Longitude | Altitude | Speed | Heading |
|---|---|---|---|---|---|
| 2026-05-07 09:40 | 36.15303 | -5.34628 | 19 ft | 0 kts | 358° |
| 2026-05-07 09:54 | 36.15291 | -5.34627 | 18 ft | 3 kts | 358° |
| 2026-05-07 09:55 | 36.15271 | -5.34626 | 18 ft | 3 kts | 358° |
| 2026-05-07 09:55 | 36.15252 | -5.34627 | 18 ft | 3 kts | 15° |
| 2026-05-07 09:55 | 36.15235 | -5.34636 | 20 ft | 3 kts | 51° |
| 2026-05-07 09:55 | 36.15226 | -5.34657 | 20 ft | 3 kts | 82° |
| 2026-05-07 09:56 | 36.15225 | -5.34679 | 21 ft | 1 kts | 88° |
| 2026-05-07 09:56 | 36.15224 | -5.34686 | 21 ft | 0 kts | 87° |
| 2026-05-07 09:58 | 36.15225 | -5.34678 | 21 ft | 2 kts | 87° |
| 2026-05-07 09:58 | 36.15225 | -5.34651 | 20 ft | 4 kts | 88° |
| 2026-05-07 09:58 | 36.15227 | -5.34606 | 20 ft | 6 kts | 88° |
| 2026-05-07 09:59 | 36.15229 | -5.34543 | 18 ft | 8 kts | 88° |
| 2026-05-07 09:59 | 36.15232 | -5.34460 | 18 ft | 10 kts | 87° |
| 2026-05-07 09:59 | 36.15233 | -5.34418 | 18 ft | 5 kts | 86° |
| 2026-05-07 09:59 | 36.15236 | -5.34368 | 18 ft | 7 kts | 86° |
| 2026-05-07 10:00 | 36.15239 | -5.34301 | 18 ft | 9 kts | 86° |
| 2026-05-07 10:00 | 36.15206 | -5.34238 | 18 ft | 10 kts | 158° |
| 2026-05-07 10:00 | 36.15143 | -5.34274 | 16 ft | 13 kts | 256° |
| 2026-05-07 10:00 | 36.15128 | -5.34574 | 18 ft | 75 kts | 268° |
| 2026-05-07 10:01 | 36.15096 | -5.35545 | 21 ft | 146 kts | 268° |
| 2026-05-07 10:01 | 36.15050 | -5.36913 | 503 ft | 162 kts | 267° |
| 2026-05-07 10:01 | 36.14987 | -5.38318 | 1324 ft | 166 kts | 266° |
| 2026-05-07 10:01 | 36.14843 | -5.39838 | 1908 ft | 189 kts | 252° |
| 2026-05-07 10:02 | 36.13995 | -5.41168 | 2485 ft | 217 kts | 211° |
| 2026-05-07 10:02 | 36.12455 | -5.41450 | 3300 ft | 238 kts | 169° |
| 2026-05-07 10:02 | 36.10995 | -5.40396 | 4210 ft | 260 kts | 133° |
| 2026-05-07 10:02 | 36.10240 | -5.38320 | 5192 ft | 276 kts | 98° |
| 2026-05-07 10:03 | 36.10370 | -5.35935 | 6283 ft | 282 kts | 80° |
| 2026-05-07 10:03 | 36.10852 | -5.33563 | 7206 ft | 287 kts | 75° |
| 2026-05-07 10:03 | 36.11391 | -5.31169 | 8164 ft | 292 kts | 75° |
| 2026-05-07 10:03 | 36.11942 | -5.28724 | 9173 ft | 297 kts | 75° |
| 2026-05-07 10:04 | 36.12424 | -5.26221 | 10144 ft | 302 kts | 81° |
| 2026-05-07 10:04 | 36.12719 | -5.23562 | 10691 ft | 324 kts | 85° |
| 2026-05-07 10:04 | 36.12915 | -5.20671 | 11103 ft | 349 kts | 87° |
| 2026-05-07 10:04 | 36.13077 | -5.17589 | 11643 ft | 367 kts | 87° |
| 2026-05-07 10:05 | 36.13242 | -5.14411 | 12500 ft | 374 kts | 87° |
| 2026-05-07 10:05 | 36.13432 | -5.11175 | 13447 ft | 380 kts | 86° |
| 2026-05-07 10:05 | 36.13651 | -5.07887 | 14307 ft | 386 kts | 86° |
| 2026-05-07 10:05 | 36.13891 | -5.04559 | 15112 ft | 393 kts | 85° |
| 2026-05-07 10:06 | 36.14149 | -5.01161 | 15911 ft | 400 kts | 85° |
| 2026-05-07 10:06 | 36.14414 | -4.97712 | 16708 ft | 407 kts | 85° |
| 2026-05-07 10:06 | 36.14919 | -4.94239 | 17492 ft | 415 kts | 73° |
| 2026-05-07 10:06 | 36.16019 | -4.90958 | 18252 ft | 422 kts | 60° |
| 2026-05-07 10:07 | 36.17721 | -4.87982 | 18948 ft | 427 kts | 46° |
| 2026-05-07 10:07 | 36.19930 | -4.85535 | 19688 ft | 427 kts | 31° |
| 2026-05-07 10:07 | 36.22442 | -4.83542 | 20470 ft | 430 kts | 28° |
| 2026-05-07 10:07 | 36.24987 | -4.81558 | 21236 ft | 434 kts | 28° |
| 2026-05-07 10:08 | 36.27562 | -4.79551 | 21995 ft | 439 kts | 27° |
| 2026-05-07 10:08 | 36.30159 | -4.77524 | 22731 ft | 443 kts | 27° |
| 2026-05-07 10:08 | 36.32784 | -4.75470 | 23430 ft | 448 kts | 27° |
| 2026-05-07 10:08 | 36.35430 | -4.73395 | 24006 ft | 452 kts | 27° |
| 2026-05-07 10:09 | 36.38097 | -4.71299 | 24590 ft | 455 kts | 27° |
| 2026-05-07 10:09 | 36.40777 | -4.69185 | 25140 ft | 458 kts | 27° |
| 2026-05-07 10:09 | 36.43470 | -4.67058 | 25664 ft | 460 kts | 27° |
| 2026-05-07 10:09 | 36.46178 | -4.64920 | 26147 ft | 462 kts | 27° |
| 2026-05-07 10:10 | 36.48898 | -4.62776 | 26615 ft | 464 kts | 27° |
| 2026-05-07 10:10 | 36.51630 | -4.60619 | 27046 ft | 466 kts | 27° |
| 2026-05-07 10:10 | 36.54335 | -4.58478 | 27435 ft | 468 kts | 27° |
| 2026-05-07 10:10 | 36.57086 | -4.56299 | 27802 ft | 470 kts | 27° |
| 2026-05-07 10:11 | 36.59855 | -4.54108 | 28184 ft | 471 kts | 27° |
| 2026-05-07 10:11 | 36.62614 | -4.51926 | 28675 ft | 470 kts | 27° |
| 2026-05-07 10:11 | 36.65373 | -4.49741 | 29163 ft | 468 kts | 26° |
| 2026-05-07 10:11 | 36.68119 | -4.47561 | 29650 ft | 467 kts | 26° |
| 2026-05-07 10:12 | 36.70858 | -4.45382 | 30133 ft | 466 kts | 26° |
| 2026-05-07 10:12 | 36.73593 | -4.43204 | 30507 ft | 466 kts | 27° |
| 2026-05-07 10:12 | 36.76328 | -4.41024 | 30863 ft | 467 kts | 27° |
| 2026-05-07 10:12 | 36.78965 | -4.38623 | 31218 ft | 474 kts | 36° |
| 2026-05-07 10:13 | 36.81307 | -4.35697 | 31545 ft | 480 kts | 46° |
| 2026-05-07 10:13 | 36.83270 | -4.32305 | 31851 ft | 486 kts | 56° |
| 2026-05-07 10:13 | 36.84867 | -4.28547 | 31941 ft | 493 kts | 60° |
| 2026-05-07 10:14 | 36.87983 | -4.20828 | 31954 ft | 500 kts | 61° |
| 2026-05-07 10:14 | 36.91117 | -4.13045 | 31940 ft | 502 kts | 61° |
| 2026-05-07 10:15 | 36.94233 | -4.05297 | 31944 ft | 502 kts | 62° |
| 2026-05-07 10:15 | 36.97369 | -3.97490 | 31954 ft | 503 kts | 62° |
| 2026-05-07 10:16 | 37.00507 | -3.89672 | 31965 ft | 503 kts | 62° |
| 2026-05-07 10:16 | 37.03643 | -3.81846 | 31967 ft | 503 kts | 63° |
| 2026-05-07 10:17 | 37.06770 | -3.74010 | 31970 ft | 503 kts | 63° |
| 2026-05-07 10:17 | 37.09892 | -3.66166 | 31969 ft | 504 kts | 63° |
| 2026-05-07 10:18 | 37.13008 | -3.58304 | 31965 ft | 504 kts | 63° |
| 2026-05-07 10:18 | 37.16124 | -3.50423 | 31961 ft | 504 kts | 64° |
| 2026-05-07 10:19 | 37.19218 | -3.42596 | 31961 ft | 505 kts | 64° |
| 2026-05-07 10:19 | 37.22329 | -3.34696 | 31959 ft | 505 kts | 64° |
| 2026-05-07 10:20 | 37.25432 | -3.26799 | 31966 ft | 505 kts | 64° |
| 2026-05-07 10:20 | 37.28541 | -3.18888 | 31962 ft | 505 kts | 64° |
| 2026-05-07 10:21 | 37.31646 | -3.10956 | 31961 ft | 505 kts | 65° |
| 2026-05-07 10:21 | 37.34739 | -3.03026 | 31960 ft | 505 kts | 65° |
| 2026-05-07 10:22 | 37.37822 | -2.95089 | 31960 ft | 505 kts | 65° |
| 2026-05-07 10:22 | 37.40902 | -2.87145 | 31959 ft | 505 kts | 65° |
| 2026-05-07 10:23 | 37.43982 | -2.79196 | 31966 ft | 505 kts | 65° |
| 2026-05-07 10:23 | 37.47054 | -2.71239 | 31967 ft | 505 kts | 65° |
| 2026-05-07 10:24 | 37.50109 | -2.63326 | 31973 ft | 506 kts | 65° |
| 2026-05-07 10:24 | 37.53168 | -2.55357 | 31975 ft | 505 kts | 65° |
| 2026-05-07 10:25 | 37.56219 | -2.47375 | 31982 ft | 505 kts | 65° |
| 2026-05-07 10:25 | 37.59273 | -2.39388 | 31984 ft | 505 kts | 66° |
| 2026-05-07 10:26 | 37.62325 | -2.31400 | 31990 ft | 505 kts | 66° |
| 2026-05-07 10:26 | 37.65369 | -2.23406 | 31987 ft | 505 kts | 66° |
| 2026-05-07 10:27 | 37.68392 | -2.15418 | 31988 ft | 505 kts | 66° |
| 2026-05-07 10:27 | 37.71418 | -2.07403 | 31984 ft | 505 kts | 66° |
| 2026-05-07 10:28 | 37.74436 | -1.99393 | 31982 ft | 505 kts | 66° |
| 2026-05-07 10:28 | 37.77449 | -1.91375 | 31974 ft | 505 kts | 66° |
| 2026-05-07 10:29 | 37.80467 | -1.83346 | 31988 ft | 504 kts | 66° |
| 2026-05-07 10:29 | 37.83461 | -1.75365 | 32006 ft | 501 kts | 66° |
| 2026-05-07 10:30 | 37.86438 | -1.67383 | 30226 ft | 507 kts | 66° |
| 2026-05-07 10:30 | 37.87945 | -1.63322 | 28304 ft | 512 kts | 66° |
| 2026-05-07 10:30 | 37.89503 | -1.59249 | 26556 ft | 513 kts | 62° |
| 2026-05-07 10:30 | 37.91421 | -1.55547 | 25211 ft | 506 kts | 52° |
| 2026-05-07 10:31 | 37.93774 | -1.52295 | 24062 ft | 496 kts | 42° |
| 2026-05-07 10:31 | 37.96282 | -1.49420 | 23483 ft | 477 kts | 41° |
| 2026-05-07 10:31 | 37.98713 | -1.46602 | 23179 ft | 472 kts | 42° |
| 2026-05-07 10:31 | 38.01124 | -1.43783 | 22951 ft | 469 kts | 42° |
| 2026-05-07 10:32 | 38.03504 | -1.40995 | 22028 ft | 461 kts | 42° |
| 2026-05-07 10:32 | 38.05864 | -1.38231 | 20436 ft | 462 kts | 42° |
| 2026-05-07 10:32 | 38.08216 | -1.35480 | 19207 ft | 454 kts | 42° |
| 2026-05-07 10:32 | 38.10509 | -1.32800 | 18111 ft | 444 kts | 42° |
| 2026-05-07 10:33 | 38.12727 | -1.30214 | 17685 ft | 419 kts | 42° |
| 2026-05-07 10:33 | 38.14796 | -1.27800 | 17526 ft | 391 kts | 42° |
| 2026-05-07 10:33 | 38.16768 | -1.25498 | 16843 ft | 379 kts | 42° |
| 2026-05-07 10:33 | 38.18685 | -1.23259 | 16196 ft | 368 kts | 42° |
| 2026-05-07 10:34 | 38.20545 | -1.21083 | 15569 ft | 359 kts | 42° |
| 2026-05-07 10:34 | 38.22358 | -1.18957 | 14943 ft | 352 kts | 42° |
| 2026-05-07 10:34 | 38.23989 | -1.16678 | 14348 ft | 345 kts | 52° |
| 2026-05-07 10:34 | 38.25323 | -1.14181 | 13753 ft | 338 kts | 58° |
| 2026-05-07 10:35 | 38.26484 | -1.11620 | 13090 ft | 331 kts | 61° |
| 2026-05-07 10:35 | 38.27581 | -1.09076 | 12437 ft | 325 kts | 61° |
| 2026-05-07 10:35 | 38.28675 | -1.06580 | 11798 ft | 320 kts | 60° |
| 2026-05-07 10:35 | 38.29781 | -1.04146 | 11177 ft | 316 kts | 59° |
| 2026-05-07 10:36 | 38.30902 | -1.01760 | 10555 ft | 312 kts | 59° |
| 2026-05-07 10:36 | 38.32028 | -0.99422 | 9949 ft | 309 kts | 59° |
| 2026-05-07 10:36 | 38.33138 | -0.97094 | 9297 ft | 305 kts | 63° |
| 2026-05-07 10:36 | 38.33630 | -0.94536 | 8646 ft | 296 kts | 94° |
| 2026-05-07 10:37 | 38.33395 | -0.91953 | 8008 ft | 292 kts | 101° |
| 2026-05-07 10:37 | 38.33020 | -0.89460 | 7390 ft | 289 kts | 103° |
| 2026-05-07 10:37 | 38.32612 | -0.86973 | 6767 ft | 286 kts | 102° |
| 2026-05-07 10:37 | 38.32225 | -0.84503 | 6151 ft | 283 kts | 101° |
| 2026-05-07 10:38 | 38.31860 | -0.82055 | 5515 ft | 280 kts | 101° |
| 2026-05-07 10:38 | 38.31513 | -0.79627 | 4888 ft | 276 kts | 100° |
| 2026-05-07 10:38 | 38.31181 | -0.77244 | 4306 ft | 272 kts | 100° |
| 2026-05-07 10:38 | 38.30857 | -0.74885 | 3684 ft | 269 kts | 99° |
| 2026-05-07 10:39 | 38.30537 | -0.72557 | 3085 ft | 266 kts | 99° |
| 2026-05-07 10:39 | 38.30220 | -0.70251 | 2480 ft | 263 kts | 100° |
| 2026-05-07 10:39 | 38.29903 | -0.67962 | 1884 ft | 260 kts | 99° |
| 2026-05-07 10:39 | 38.29593 | -0.65731 | 1484 ft | 250 kts | 99° |
| 2026-05-07 10:40 | 38.29301 | -0.63627 | 1140 ft | 230 kts | 99° |
| 2026-05-07 10:40 | 38.29039 | -0.61735 | 871 ft | 204 kts | 100° |
| 2026-05-07 10:40 | 38.28806 | -0.60056 | 585 ft | 182 kts | 100° |
| 2026-05-07 10:40 | 38.28605 | -0.58581 | 358 ft | 158 kts | 99° |
| 2026-05-07 10:41 | 38.28486 | -0.57714 | 264 ft | 142 kts | 99° |
| 2026-05-07 10:41 | 38.28324 | -0.56571 | 126 ft | 118 kts | 99° |
| 2026-05-07 10:41 | 38.28227 | -0.55869 | 103 ft | 41 kts | 100° |
| 2026-05-07 10:41 | 38.28226 | -0.55640 | 95 ft | 16 kts | 78° |
| 2026-05-07 10:42 | 38.28263 | -0.55477 | 90 ft | 22 kts | 68° |
| 2026-05-07 10:42 | 38.28325 | -0.55287 | 88 ft | 25 kts | 66° |
| 2026-05-07 10:42 | 38.28379 | -0.55175 | 90 ft | 3 kts | 54° |
| 2026-05-07 10:42 | 38.28389 | -0.55165 | 89 ft | 3 kts | 34° |
| 2026-05-07 10:43 | 38.28449 | -0.55190 | 92 ft | 11 kts | 351° |
| 2026-05-07 10:43 | 38.28498 | -0.55180 | 95 ft | 6 kts | 11° |
| 2026-05-07 10:43 | 38.28515 | -0.55176 | 96 ft | 0 kts | 9° |